Time;durP1;ratioP1;P1;durP2;ratioP2;P2;SDS_P1;SDS_P2;PMS_P1;PMS_P2;Temp;Humidity;BMP_temperature;BMP_pressure;BME280_temperature;BME280_humidity;BME280_pressure;Samples;Min_cycle;Max_cycle;Signal;HPM_P1;HPM_P2
2022/06/09 00:02:03;;;;;;;;;;;22.10;50.60;;;;;;5092172;28;19931;-59
2022/06/09 00:04:31;;;;;;;;;;;22.10;50.60;;;;;;5076723;28;19931;-59
2022/06/09 00:07:00;;;;;;;;;;;22.10;50.60;;;;;;5092308;28;20018;-58
2022/06/09 00:09:28;;;;;;;;;;;22.10;50.60;;;;;;5088074;28;19924;-55
2022/06/09 00:11:54;;;;;;;;;;;22.10;50.60;;;;;;5091769;28;19920;-59
2022/06/09 00:14:21;;;;;;;;;;;22.10;50.60;;;;;;5090926;28;19977;-57
2022/06/09 00:16:48;;;;;;;;;;;22.10;50.70;;;;;;5082454;28;20017;-57
2022/06/09 00:19:16;;;;;;;;;;;22.10;50.70;;;;;;5089524;28;20450;-59
2022/06/09 00:21:44;;;;;;;;;;;22.10;50.80;;;;;;5087865;28;19931;-58
2022/06/09 00:24:12;;;;;;;;;;;22.10;50.80;;;;;;5093321;28;20026;-58
2022/06/09 00:26:39;;;;;;;;;;;22.10;50.80;;;;;;5087869;28;19928;-60
2022/06/09 00:29:06;;;;;;;;;;;22.10;50.90;;;;;;5089448;28;19924;-59
2022/06/09 00:31:33;;;;;;;;;;;22.10;50.90;;;;;;5086779;28;19936;-58
2022/06/09 00:33:59;;;;;;;;;;;22.10;51.00;;;;;;5083662;28;19975;-59
2022/06/09 00:36:26;;;;;;;;;;;22.10;50.90;;;;;;5091936;28;20369;-57
2022/06/09 00:38:53;;;;;;;;;;;22.10;51.00;;;;;;5090157;28;19924;-59
2022/06/09 00:41:21;;;;;;;;;;;22.10;51.00;;;;;;5090697;28;19946;-57
2022/06/09 00:43:48;;;;;;;;;;;22.10;51.00;;;;;;5092839;28;19924;-59
2022/06/09 00:46:16;;;;;;;;;;;22.10;51.10;;;;;;5089523;28;20488;-60
2022/06/09 00:48:43;;;;;;;;;;;22.10;51.10;;;;;;5091172;28;19924;-58
2022/06/09 00:51:20;;;;;;;;;;;22.10;51.10;;;;;;5090286;28;19928;-59
2022/06/09 00:53:47;;;;;;;;;;;22.10;51.10;;;;;;5100306;28;20385;-58
2022/06/09 00:56:14;;;;;;;;;;;22.10;51.20;;;;;;5078382;28;19931;-57
2022/06/09 00:58:43;;;;;;;;;;;22.10;51.20;;;;;;5086099;28;19928;-58
2022/06/09 01:01:12;;;;;;;;;;;22.10;51.10;;;;;;5088867;28;19928;-58
2022/06/09 01:03:40;;;;;;;;;;;22.10;51.20;;;;;;5073259;28;19930;-57
2022/06/09 01:06:07;;;;;;;;;;;22.10;51.20;;;;;;5090851;28;19924;-58
2022/06/09 01:08:35;;;;;;;;;;;22.00;51.10;;;;;;5084361;28;19924;-57
2022/06/09 01:11:03;;;;;;;;;;;22.10;51.30;;;;;;5091953;28;20324;-59
2022/06/09 01:13:30;;;;;;;;;;;22.10;51.30;;;;;;5087412;28;19928;-59
2022/06/09 01:15:59;;;;;;;;;;;22.10;51.30;;;;;;5091013;28;19928;-60
2022/06/09 01:18:30;;;;;;;;;;;22.00;51.20;;;;;;5090550;28;20331;-58
2022/06/09 01:20:59;;;;;;;;;;;22.10;51.30;;;;;;5080918;28;19924;-58
2022/06/09 01:23:40;;;;;;;;;;;22.10;51.40;;;;;;5090348;28;20416;-60
2022/06/09 01:26:14;;;;;;;;;;;22.10;51.30;;;;;;5081355;28;19924;-58
2022/06/09 01:28:58;;;;;;;;;;;22.00;51.20;;;;;;5089549;28;19974;-59
2022/06/09 01:31:28;;;;;;;;;;;22.10;51.40;;;;;;5085440;28;20357;-59
2022/06/09 01:33:57;;;;;;;;;;;22.10;51.40;;;;;;5087180;28;20299;-60
2022/06/09 01:36:24;;;;;;;;;;;22.00;51.30;;;;;;5088379;28;19927;-59
2022/06/09 01:38:54;;;;;;;;;;;22.10;51.50;;;;;;5087257;28;19924;-57
2022/06/09 01:41:21;;;;;;;;;;;22.10;51.50;;;;;;5090858;28;19924;-59
2022/06/09 01:43:48;;;;;;;;;;;22.10;51.40;;;;;;5093118;28;19977;-58
2022/06/09 01:46:16;;;;;;;;;;;22.00;51.40;;;;;;5082512;28;20453;-59
2022/06/09 01:48:44;;;;;;;;;;;22.00;51.40;;;;;;5090806;28;19928;-59
2022/06/09 01:51:11;;;;;;;;;;;22.10;51.60;;;;;;5089413;28;19929;-59
2022/06/09 01:53:38;;;;;;;;;;;22.00;51.50;;;;;;5091025;28;20401;-57
2022/06/09 01:56:09;;;;;;;;;;;22.00;51.50;;;;;;5091495;28;20369;-58
2022/06/09 01:58:37;;;;;;;;;;;22.10;51.60;;;;;;5085706;28;19924;-59
2022/06/09 02:01:04;;;;;;;;;;;22.00;51.50;;;;;;5086371;28;19924;-58
2022/06/09 02:03:31;;;;;;;;;;;22.00;51.50;;;;;;5084381;28;19935;-58
2022/06/09 02:05:59;;;;;;;;;;;22.00;51.50;;;;;;5080722;28;19925;-58
2022/06/09 02:08:26;;;;;;;;;;;22.10;51.60;;;;;;5090590;28;19928;-58
2022/06/09 02:10:53;;;;;;;;;;;22.00;51.50;;;;;;5100034;28;19950;-59
2022/06/09 02:13:20;;;;;;;;;;;22.00;51.50;;;;;;5082452;28;19924;-58
2022/06/09 02:15:47;;;;;;;;;;;22.00;51.50;;;;;;5090663;28;19924;-58
2022/06/09 02:18:15;;;;;;;;;;;22.00;51.50;;;;;;5090834;28;19924;-57
2022/06/09 02:20:43;;;;;;;;;;;22.00;51.50;;;;;;5084170;28;19928;-60
2022/06/09 02:23:11;;;;;;;;;;;22.00;51.50;;;;;;5088631;28;19939;-58
2022/06/09 02:25:38;;;;;;;;;;;22.00;51.50;;;;;;5088203;28;19959;-59
2022/06/09 02:28:05;;;;;;;;;;;22.00;51.50;;;;;;5088449;28;20374;-58
2022/06/09 02:30:32;;;;;;;;;;;22.00;51.50;;;;;;5094864;28;19925;-58
2022/06/09 02:32:59;;;;;;;;;;;22.00;51.60;;;;;;5087367;28;19975;-58
2022/06/09 02:35:26;;;;;;;;;;;22.00;51.60;;;;;;5090989;28;19925;-59
2022/06/09 02:37:52;;;;;;;;;;;22.00;51.60;;;;;;5086092;28;20447;-58
2022/06/09 02:40:20;;;;;;;;;;;22.00;51.60;;;;;;5081782;28;19931;-58
2022/06/09 02:42:47;;;;;;;;;;;22.00;51.60;;;;;;5083388;28;19925;-59
2022/06/09 02:45:15;;;;;;;;;;;22.00;51.60;;;;;;5083040;28;19986;-59
2022/06/09 02:47:41;;;;;;;;;;;22.00;51.70;;;;;;5090459;28;19920;-59
2022/06/09 02:50:08;;;;;;;;;;;22.00;51.70;;;;;;5089327;28;19928;-58
2022/06/09 02:52:35;;;;;;;;;;;22.00;51.70;;;;;;5080685;28;20365;-60
2022/06/09 02:55:02;;;;;;;;;;;22.00;51.70;;;;;;5088498;28;19928;-58
2022/06/09 02:57:30;;;;;;;;;;;22.00;51.70;;;;;;5089794;28;20373;-58
2022/06/09 02:59:57;;;;;;;;;;;22.00;51.70;;;;;;5084421;28;19971;-59
2022/06/09 03:02:24;;;;;;;;;;;22.00;51.80;;;;;;5086923;28;19920;-58
2022/06/09 03:04:51;;;;;;;;;;;22.00;51.80;;;;;;5084132;28;19924;-59
2022/06/09 03:07:18;;;;;;;;;;;22.00;51.80;;;;;;5087995;28;20018;-58
2022/06/09 03:09:44;;;;;;;;;;;22.00;51.90;;;;;;5087760;28;19928;-60
2022/06/09 03:12:12;;;;;;;;;;;22.00;51.90;;;;;;5082088;28;20068;-59
2022/06/09 03:14:40;;;;;;;;;;;22.00;52.00;;;;;;5087316;28;19947;-59
2022/06/09 03:17:08;;;;;;;;;;;22.00;52.00;;;;;;5082971;28;19934;-59
2022/06/09 03:19:35;;;;;;;;;;;22.00;52.00;;;;;;5083994;28;19978;-58
2022/06/09 03:22:01;;;;;;;;;;;22.00;52.00;;;;;;5081069;28;19939;-59
2022/06/09 03:24:31;;;;;;;;;;;21.90;51.90;;;;;;5086103;28;19966;-58
2022/06/09 03:26:58;;;;;;;;;;;22.00;52.10;;;;;;5087595;28;19947;-60
2022/06/09 03:29:25;;;;;;;;;;;21.90;52.00;;;;;;5091651;28;19928;-59
2022/06/09 03:31:53;;;;;;;;;;;21.90;52.00;;;;;;5092006;28;19939;-60
2022/06/09 03:34:19;;;;;;;;;;;22.00;52.10;;;;;;5088333;28;19999;-59
2022/06/09 03:36:46;;;;;;;;;;;22.00;52.10;;;;;;5088309;28;19988;-59
2022/06/09 03:39:13;;;;;;;;;;;22.00;52.10;;;;;;5092347;28;19924;-57
2022/06/09 03:41:40;;;;;;;;;;;22.00;52.10;;;;;;5089361;28;19924;-60
2022/06/09 03:44:07;;;;;;;;;;;21.90;52.00;;;;;;5088451;28;19928;-59
2022/06/09 03:46:34;;;;;;;;;;;21.90;52.00;;;;;;5081190;28;19930;-60
2022/06/09 03:49:02;;;;;;;;;;;21.90;52.00;;;;;;5082323;28;19924;-59
2022/06/09 03:51:29;;;;;;;;;;;21.90;52.00;;;;;;5087979;28;19924;-58
2022/06/09 03:53:56;;;;;;;;;;;21.90;52.00;;;;;;5092241;28;19924;-60
2022/06/09 03:56:23;;;;;;;;;;;21.90;52.00;;;;;;5093161;28;20377;-59
2022/06/09 03:58:49;;;;;;;;;;;21.90;52.10;;;;;;5086022;28;19924;-58
2022/06/09 04:01:17;;;;;;;;;;;21.90;52.10;;;;;;5098110;28;19978;-60
2022/06/09 04:03:44;;;;;;;;;;;21.90;52.10;;;;;;5092248;28;20278;-60
2022/06/09 04:06:13;;;;;;;;;;;21.90;52.20;;;;;;5091594;28;19924;-56
2022/06/09 04:08:40;;;;;;;;;;;21.90;52.20;;;;;;5089188;28;19928;-59
2022/06/09 04:11:08;;;;;;;;;;;21.90;52.20;;;;;;5090356;28;19924;-60
2022/06/09 04:13:35;;;;;;;;;;;21.90;52.20;;;;;;5085557;28;19969;-59
2022/06/09 04:16:01;;;;;;;;;;;21.90;52.20;;;;;;5091041;28;19960;-59
2022/06/09 04:18:28;;;;;;;;;;;21.90;52.20;;;;;;5090586;28;20016;-58
2022/06/09 04:20:55;;;;;;;;;;;21.90;52.30;;;;;;5088963;28;20373;-59
2022/06/09 04:23:25;;;;;;;;;;;21.90;52.20;;;;;;5087450;28;19924;-59
2022/06/09 04:25:51;;;;;;;;;;;21.90;52.30;;;;;;5097882;28;20492;-59
2022/06/09 04:28:18;;;;;;;;;;;21.90;52.30;;;;;;5092889;28;20378;-59
2022/06/09 04:30:46;;;;;;;;;;;21.90;52.30;;;;;;5083624;28;20509;-58
2022/06/09 04:33:13;;;;;;;;;;;21.90;52.40;;;;;;5079622;28;19928;-59
2022/06/09 04:35:40;;;;;;;;;;;21.90;52.40;;;;;;5080144;28;19931;-59
2022/06/09 04:38:07;;;;;;;;;;;21.90;52.40;;;;;;5090790;28;19924;-59
2022/06/09 04:40:36;;;;;;;;;;;21.90;52.50;;;;;;5073522;28;19988;-58
2022/06/09 04:43:03;;;;;;;;;;;21.90;52.50;;;;;;5085894;28;20382;-58
2022/06/09 04:45:29;;;;;;;;;;;21.90;52.50;;;;;;5074897;28;19947;-57
2022/06/09 04:47:56;;;;;;;;;;;21.90;52.50;;;;;;5083075;28;20404;-54
2022/06/09 04:50:23;;;;;;;;;;;21.90;52.60;;;;;;5091843;28;19969;-56
2022/06/09 04:52:50;;;;;;;;;;;21.90;52.60;;;;;;5091081;28;19931;-58
2022/06/09 04:55:17;;;;;;;;;;;21.90;52.60;;;;;;5090399;28;19959;-57
2022/06/09 04:57:45;;;;;;;;;;;21.90;52.60;;;;;;5088849;28;20597;-57
2022/06/09 05:00:12;;;;;;;;;;;21.80;52.50;;;;;;5089628;28;19928;-59
2022/06/09 05:02:39;;;;;;;;;;;21.90;52.60;;;;;;5085182;28;20354;-56
2022/06/09 05:05:06;;;;;;;;;;;21.90;52.60;;;;;;5091221;28;19925;-58
2022/06/09 05:07:33;;;;;;;;;;;21.90;52.70;;;;;;5088630;28;20382;-57
2022/06/09 05:10:00;;;;;;;;;;;21.90;52.70;;;;;;5092172;28;19932;-58
2022/06/09 05:12:29;;;;;;;;;;;21.90;52.70;;;;;;5090382;28;19973;-57
2022/06/09 05:14:59;;;;;;;;;;;21.90;52.80;;;;;;5088656;28;19924;-57
2022/06/09 05:17:25;;;;;;;;;;;21.90;52.70;;;;;;5087095;28;19975;-58
2022/06/09 05:19:52;;;;;;;;;;;21.90;53.30;;;;;;5089719;28;19924;-58
2022/06/09 05:22:19;;;;;;;;;;;21.90;52.70;;;;;;5089360;28;19967;-56
2022/06/09 05:24:46;;;;;;;;;;;21.90;52.70;;;;;;5088515;28;20038;-57
2022/06/09 05:27:14;;;;;;;;;;;21.90;52.60;;;;;;5091662;28;19924;-56
2022/06/09 05:29:41;;;;;;;;;;;21.90;52.60;;;;;;5085769;28;19924;-57
2022/06/09 05:32:10;;;;;;;;;;;21.90;52.70;;;;;;5088094;28;20393;-58
2022/06/09 05:34:36;;;;;;;;;;;21.90;52.60;;;;;;5081750;28;19928;-56
2022/06/09 05:37:03;;;;;;;;;;;21.90;52.60;;;;;;5088350;28;19931;-57
2022/06/09 05:45:07;;;;;;;;;;;21.90;52.60;;;;;;5092263;28;20274;-55
2022/06/09 05:47:36;;;;;;;;;;;21.90;52.60;;;;;;5086771;28;19959;-56
2022/06/09 05:50:02;;;;;;;;;;;21.90;52.70;;;;;;5080116;28;20396;-54
2022/06/09 05:52:29;;;;;;;;;;;21.90;52.60;;;;;;5096881;28;19928;-58
2022/06/09 05:54:57;;;;;;;;;;;21.90;52.60;;;;;;5088633;28;19924;-54
2022/06/09 05:57:23;;;;;;;;;;;21.90;52.70;;;;;;5089662;28;19963;-57
2022/06/09 05:59:50;;;;;;;;;;;21.90;52.70;;;;;;5085948;28;20001;-57
2022/06/09 06:02:17;;;;;;;;;;;21.90;52.70;;;;;;5086435;28;19924;-56
2022/06/09 06:04:46;;;;;;;;;;;21.80;52.60;;;;;;5100488;28;19924;-56
2022/06/09 06:07:13;;;;;;;;;;;21.90;52.70;;;;;;5082380;28;19930;-58
2022/06/09 06:09:40;;;;;;;;;;;21.90;52.80;;;;;;5097045;28;20005;-59
2022/06/09 06:12:07;;;;;;;;;;;21.90;52.80;;;;;;5084968;28;19931;-58
2022/06/09 06:14:34;;;;;;;;;;;21.90;52.80;;;;;;5071671;28;20267;-57
2022/06/09 06:17:01;;;;;;;;;;;21.90;52.80;;;;;;5079754;28;20278;-57
2022/06/09 06:19:28;;;;;;;;;;;21.90;52.80;;;;;;5089378;28;19958;-59
2022/06/09 06:21:56;;;;;;;;;;;21.90;52.90;;;;;;5093013;28;19928;-59
2022/06/09 06:24:23;;;;;;;;;;;21.90;52.90;;;;;;5089681;28;19935;-58
2022/06/09 06:26:52;;;;;;;;;;;21.90;52.90;;;;;;5085568;28;20019;-56
2022/06/09 06:29:21;;;;;;;;;;;21.90;52.90;;;;;;5089553;28;19928;-57
2022/06/09 06:31:49;;;;;;;;;;;21.90;52.90;;;;;;5083736;28;19924;-59
2022/06/09 06:34:16;;;;;;;;;;;21.90;52.90;;;;;;5091658;28;19924;-58
2022/06/09 06:36:43;;;;;;;;;;;21.90;52.90;;;;;;5087369;28;20300;-59
2022/06/09 06:39:11;;;;;;;;;;;21.90;53.00;;;;;;5084638;28;20018;-59
2022/06/09 06:41:39;;;;;;;;;;;21.90;53.00;;;;;;5077960;28;19932;-59
2022/06/09 06:44:06;;;;;;;;;;;21.90;53.00;;;;;;5084821;28;20022;-59
2022/06/09 06:46:33;;;;;;;;;;;21.90;53.00;;;;;;5087226;28;19924;-58
2022/06/09 06:48:59;;;;;;;;;;;21.90;53.00;;;;;;5082713;28;19936;-58
2022/06/09 06:51:26;;;;;;;;;;;21.90;53.10;;;;;;5088634;28;19941;-68
2022/06/09 06:53:53;;;;;;;;;;;21.90;53.00;;;;;;5087286;28;19972;-68
2022/06/09 06:56:21;;;;;;;;;;;21.90;53.10;;;;;;5088118;28;19935;-68
2022/06/09 06:58:48;;;;;;;;;;;21.90;53.10;;;;;;5094423;28;19935;-68
2022/06/09 07:01:15;;;;;;;;;;;21.90;53.00;;;;;;5088813;28;19930;-68
2022/06/09 07:03:41;;;;;;;;;;;21.90;53.00;;;;;;5089093;28;19954;-69
2022/06/09 07:06:08;;;;;;;;;;;21.80;53.00;;;;;;5120556;27;19928;-69
2022/06/09 07:08:36;;;;;;;;;;;21.90;53.00;;;;;;5090637;28;19924;-68
2022/06/09 07:11:03;;;;;;;;;;;21.90;53.00;;;;;;5093858;28;19931;-67
2022/06/09 07:13:31;;;;;;;;;;;21.90;53.00;;;;;;5083254;28;19936;-66
2022/06/09 07:15:58;;;;;;;;;;;21.90;52.90;;;;;;5081609;28;19960;-66
2022/06/09 07:18:25;;;;;;;;;;;21.80;52.80;;;;;;5079736;28;19928;-63
2022/06/09 07:20:51;;;;;;;;;;;21.90;52.80;;;;;;5077539;28;19924;-63
2022/06/09 07:23:18;;;;;;;;;;;21.90;52.80;;;;;;5080957;28;19924;-64
2022/06/09 07:25:45;;;;;;;;;;;21.90;52.80;;;;;;5099204;28;19928;-63
2022/06/09 07:28:12;;;;;;;;;;;21.90;52.70;;;;;;5093728;28;19932;-63
2022/06/09 07:30:40;;;;;;;;;;;21.90;52.60;;;;;;5100718;27;19969;-63
2022/06/09 07:33:07;;;;;;;;;;;21.90;52.60;;;;;;5085512;28;20031;-63
2022/06/09 07:35:35;;;;;;;;;;;21.90;52.60;;;;;;5088947;28;19935;-64
2022/06/09 07:38:04;;;;;;;;;;;21.90;52.50;;;;;;5097762;28;20026;-63
2022/06/09 07:40:31;;;;;;;;;;;21.90;52.40;;;;;;5089023;28;20297;-64
2022/06/09 07:42:58;;;;;;;;;;;22.00;52.50;;;;;;5089533;28;19932;-63
2022/06/09 07:45:25;;;;;;;;;;;22.00;52.50;;;;;;5077997;28;19931;-64
2022/06/09 07:47:53;;;;;;;;;;;22.00;52.50;;;;;;5084316;28;19986;-63
2022/06/09 07:50:20;;;;;;;;;;;22.00;52.40;;;;;;5089146;28;19928;-64
2022/06/09 07:52:47;;;;;;;;;;;22.00;52.40;;;;;;5088226;28;19928;-64
2022/06/09 07:55:14;;;;;;;;;;;22.00;52.40;;;;;;5084631;28;19932;-63
2022/06/09 07:57:41;;;;;;;;;;;22.00;52.40;;;;;;5087217;28;19989;-64
2022/06/09 08:00:08;;;;;;;;;;;22.00;52.30;;;;;;5089804;28;19924;-63
2022/06/09 08:02:35;;;;;;;;;;;22.00;52.30;;;;;;5082358;28;19955;-63
2022/06/09 08:05:04;;;;;;;;;;;22.00;52.30;;;;;;5086789;28;20339;-64
2022/06/09 08:07:31;;;;;;;;;;;22.00;52.30;;;;;;5084661;28;19925;-64
2022/06/09 08:09:58;;;;;;;;;;;22.00;52.20;;;;;;5085237;28;19999;-65
2022/06/09 08:12:27;;;;;;;;;;;22.10;52.30;;;;;;5094105;28;19931;-64
2022/06/09 08:14:54;;;;;;;;;;;22.00;52.20;;;;;;5091722;28;20047;-63
2022/06/09 08:17:22;;;;;;;;;;;22.00;52.20;;;;;;5085552;28;19951;-64
2022/06/09 08:19:49;;;;;;;;;;;22.10;52.30;;;;;;5075282;28;19986;-64
2022/06/09 08:22:17;;;;;;;;;;;22.00;52.20;;;;;;5091204;28;20502;-64
2022/06/09 08:24:44;;;;;;;;;;;22.00;52.20;;;;;;5086519;28;19946;-64
2022/06/09 08:27:11;;;;;;;;;;;22.10;52.30;;;;;;5086266;28;20299;-63
2022/06/09 08:29:38;;;;;;;;;;;22.10;52.20;;;;;;5096498;28;19932;-63
2022/06/09 08:32:05;;;;;;;;;;;22.10;52.20;;;;;;5089852;28;19924;-63
2022/06/09 08:34:32;;;;;;;;;;;22.10;52.20;;;;;;5088775;28;20268;-65
2022/06/09 08:36:59;;;;;;;;;;;22.10;52.20;;;;;;5076174;28;20373;-64
2022/06/09 08:39:28;;;;;;;;;;;22.10;52.20;;;;;;5084753;28;20019;-63
2022/06/09 08:41:58;;;;;;;;;;;22.10;52.20;;;;;;5088407;28;19993;-64
2022/06/09 08:44:25;;;;;;;;;;;22.10;52.20;;;;;;5079504;28;19929;-63
2022/06/09 08:46:54;;;;;;;;;;;22.10;52.20;;;;;;5096648;28;19977;-64
2022/06/09 08:49:30;;;;;;;;;;;22.10;52.20;;;;;;5083362;28;19927;-64
2022/06/09 08:51:58;;;;;;;;;;;22.10;52.20;;;;;;5091512;28;19924;-59
2022/06/09 08:54:27;;;;;;;;;;;22.10;52.20;;;;;;5078095;28;19932;-61
2022/06/09 08:56:55;;;;;;;;;;;22.10;52.20;;;;;;5012992;28;1873580;-69
2022/06/09 08:59:23;;;;;;;;;;;22.20;52.30;;;;;;5090007;28;19923;-68
2022/06/09 09:01:51;;;;;;;;;;;22.10;52.20;;;;;;5093859;28;20261;-65
2022/06/09 09:04:19;;;;;;;;;;;22.10;52.20;;;;;;5091011;28;20008;-65
2022/06/09 09:06:47;;;;;;;;;;;22.10;52.30;;;;;;5082117;28;19924;-66
2022/06/09 09:09:14;;;;;;;;;;;22.10;52.20;;;;;;5094715;28;19924;-65
2022/06/09 09:11:44;;;;;;;;;;;22.10;52.30;;;;;;5080514;28;19935;-66
2022/06/09 09:14:14;;;;;;;;;;;22.10;52.30;;;;;;5081703;28;19981;-67
2022/06/09 09:16:43;;;;;;;;;;;22.10;52.30;;;;;;5078580;28;19928;-66
2022/06/09 09:19:13;;;;;;;;;;;22.10;52.30;;;;;;5083164;28;19961;-64
2022/06/09 09:21:45;;;;;;;;;;;22.10;52.30;;;;;;5080857;28;19975;-66
2022/06/09 09:24:23;;;;;;;;;;;22.10;52.30;;;;;;5083895;28;19924;-64
2022/06/09 09:26:51;;;;;;;;;;;22.10;52.30;;;;;;5076352;28;19932;-64
2022/06/09 09:29:23;;;;;;;;;;;22.10;52.30;;;;;;5078289;28;19921;-64
2022/06/09 09:31:51;;;;;;;;;;;22.10;52.30;;;;;;5085603;28;19940;-64
2022/06/09 09:34:18;;;;;;;;;;;22.10;52.30;;;;;;5077641;28;20023;-64
2022/06/09 09:36:45;;;;;;;;;;;22.10;52.20;;;;;;5086606;28;19925;-64
2022/06/09 09:39:13;;;;;;;;;;;22.10;52.30;;;;;;5083121;28;20332;-65
2022/06/09 09:41:40;;;;;;;;;;;22.10;52.30;;;;;;5083509;28;20293;-66
2022/06/09 09:44:13;;;;;;;;;;;22.10;52.30;;;;;;5090168;28;20400;-65
2022/06/09 09:46:41;;;;;;;;;;;22.10;52.20;;;;;;5087313;28;19989;-65
2022/06/09 09:49:16;;;;;;;;;;;22.10;52.20;;;;;;5079644;28;19935;-64
2022/06/09 09:51:43;;;;;;;;;;;22.10;52.20;;;;;;5094646;28;20042;-59
2022/06/09 09:54:10;;;;;;;;;;;22.20;52.30;;;;;;5079330;28;20288;-64
2022/06/09 09:56:37;;;;;;;;;;;22.10;52.20;;;;;;5080842;28;20019;-65
2022/06/09 09:59:05;;;;;;;;;;;22.10;52.20;;;;;;5082152;28;20058;-64
2022/06/09 10:08:35;;;;;;;;;;;22.10;52.30;;;;;;5080011;28;19955;-64
2022/06/09 10:09:54;;;;;;;;;;;22.10;52.20;;;;;;5085469;28;20069;-64
2022/06/09 10:12:25;;;;;;;;;;;22.10;52.20;;;;;;5076606;28;20009;-66
2022/06/09 10:14:52;;;;;;;;;;;22.10;52.20;;;;;;5076772;28;19936;-66
2022/06/09 10:17:30;;;;;;;;;;;22.10;52.20;;;;;;5087242;28;19931;-64
2022/06/09 10:20:00;;;;;;;;;;;22.10;52.20;;;;;;5080292;28;20069;-65
2022/06/09 10:22:27;;;;;;;;;;;22.10;52.20;;;;;;5084214;28;19924;-64
2022/06/09 10:24:54;;;;;;;;;;;22.10;52.10;;;;;;5081511;28;19928;-64
2022/06/09 10:27:22;;;;;;;;;;;22.10;52.10;;;;;;5078651;28;19924;-66
2022/06/09 10:29:51;;;;;;;;;;;22.10;52.10;;;;;;5083646;28;19924;-66
2022/06/09 10:32:18;;;;;;;;;;;22.10;52.10;;;;;;5083144;28;20380;-60
2022/06/09 10:34:47;;;;;;;;;;;22.20;52.20;;;;;;5083372;28;20434;-65
2022/06/09 10:37:18;;;;;;;;;;;22.10;52.10;;;;;;5080295;28;19931;-65
2022/06/09 10:39:46;;;;;;;;;;;22.20;52.70;;;;;;5083013;28;20377;-64
2022/06/09 10:42:20;;;;;;;;;;;22.10;52.10;;;;;;5083887;28;19954;-64
2022/06/09 10:44:47;;;;;;;;;;;22.20;52.10;;;;;;5081342;28;19928;-61
2022/06/09 10:55:55;;;;;;;;;;;22.10;52.00;;;;;;5079847;28;20302;-60
2022/06/09 10:58:22;;;;;;;;;;;22.10;52.00;;;;;;5079951;28;19931;-59
2022/06/09 11:00:49;;;;;;;;;;;22.20;52.00;;;;;;5092999;28;19924;-59
2022/06/09 11:03:17;;;;;;;;;;;22.10;51.90;;;;;;5084020;28;20361;-60
2022/06/09 11:05:47;;;;;;;;;;;22.10;51.90;;;;;;5090119;28;19939;-60
2022/06/09 11:08:16;;;;;;;;;;;22.20;52.00;;;;;;5079286;28;19947;-60
2022/06/09 11:11:01;;;;;;;;;;;22.20;52.00;;;;;;5085249;28;19929;-59
2022/06/09 11:13:40;;;;;;;;;;;22.10;51.90;;;;;;5069391;28;20373;-60
2022/06/09 11:16:09;;;;;;;;;;;22.10;51.90;;;;;;5087632;28;19985;-59
2022/06/09 11:18:37;;;;;;;;;;;22.10;51.90;;;;;;5080352;28;19924;-59
2022/06/09 11:21:07;;;;;;;;;;;22.10;52.00;;;;;;5085606;28;20277;-60
2022/06/09 11:23:39;;;;;;;;;;;22.10;52.00;;;;;;5093408;28;20303;-59
2022/06/09 11:26:11;;;;;;;;;;;22.10;52.10;;;;;;5073432;28;19947;-59
2022/06/09 11:28:41;;;;;;;;;;;22.20;52.20;;;;;;5094966;28;20028;-59
2022/06/09 11:31:14;;;;;;;;;;;22.10;52.10;;;;;;5078771;28;19928;-60
2022/06/09 11:33:45;;;;;;;;;;;22.10;52.20;;;;;;5085061;28;19931;-60
2022/06/09 11:36:14;;;;;;;;;;;22.20;52.30;;;;;;5081076;28;19938;-60
2022/06/09 11:38:47;;;;;;;;;;;22.20;52.30;;;;;;5082892;28;19924;-65
2022/06/09 11:41:17;;;;;;;;;;;22.20;52.30;;;;;;5081496;28;19932;-64
2022/06/09 11:43:47;;;;;;;;;;;22.20;52.30;;;;;;5094095;28;19939;-64
2022/06/09 11:46:15;;;;;;;;;;;22.20;52.30;;;;;;5085760;28;19971;-65
2022/06/09 11:48:42;;;;;;;;;;;22.20;52.30;;;;;;5091891;28;20431;-65
2022/06/09 11:51:09;;;;;;;;;;;22.20;52.20;;;;;;5086869;28;19924;-64
2022/06/09 11:53:36;;;;;;;;;;;22.20;52.20;;;;;;5090920;28;19963;-64
2022/06/09 11:56:33;;;;;;;;;;;22.20;52.20;;;;;;5083020;28;19932;-64
2022/06/09 11:59:00;;;;;;;;;;;22.20;52.20;;;;;;5087200;28;19924;-64
2022/06/09 12:01:44;;;;;;;;;;;22.20;52.20;;;;;;5089227;28;19924;-64
2022/06/09 12:04:25;;;;;;;;;;;22.20;52.20;;;;;;5084203;28;20280;-65
2022/06/09 12:06:57;;;;;;;;;;;22.20;52.10;;;;;;5086292;28;19924;-65
2022/06/09 12:09:25;;;;;;;;;;;22.20;52.10;;;;;;5078029;28;19924;-64
2022/06/09 12:11:55;;;;;;;;;;;22.20;52.10;;;;;;5084763;28;19924;-64
2022/06/09 12:14:22;;;;;;;;;;;22.20;52.00;;;;;;5073053;28;19924;-65
2022/06/09 12:16:58;;;;;;;;;;;22.20;51.90;;;;;;5080243;28;19948;-64
2022/06/09 12:19:26;;;;;;;;;;;22.20;51.90;;;;;;5084175;28;19924;-64
2022/06/09 12:21:53;;;;;;;;;;;22.20;51.90;;;;;;5081892;28;19924;-64
2022/06/09 12:24:24;;;;;;;;;;;22.20;51.90;;;;;;5102636;28;20376;-64
2022/06/09 12:26:55;;;;;;;;;;;22.30;51.90;;;;;;5100140;27;19940;-64
2022/06/09 12:30:05;;;;;;;;;;;22.20;51.80;;;;;;5081818;28;19961;-64
2022/06/09 12:32:40;;;;;;;;;;;22.30;51.90;;;;;;5095495;28;19932;-63
2022/06/09 12:35:31;;;;;;;;;;;22.20;51.80;;;;;;5083507;28;19928;-65
2022/06/09 12:37:59;;;;;;;;;;;22.30;51.80;;;;;;5076671;28;19931;-64
2022/06/09 12:40:28;;;;;;;;;;;22.30;51.70;;;;;;5088894;28;20053;-64
2022/06/09 12:42:56;;;;;;;;;;;22.30;51.70;;;;;;5084267;28;19924;-64
2022/06/09 12:45:24;;;;;;;;;;;22.20;51.60;;;;;;5091883;28;19925;-63
2022/06/09 12:47:52;;;;;;;;;;;22.30;51.70;;;;;;5087597;28;19955;-63
2022/06/09 12:50:23;;;;;;;;;;;22.30;51.70;;;;;;5080140;28;19924;-64
2022/06/09 12:52:49;;;;;;;;;;;22.30;51.60;;;;;;5086097;28;20412;-64
2022/06/09 12:55:17;;;;;;;;;;;22.30;51.60;;;;;;5090631;28;19932;-64
2022/06/09 12:57:44;;;;;;;;;;;22.20;51.50;;;;;;5090803;28;19930;-58
2022/06/09 13:00:15;;;;;;;;;;;22.30;51.60;;;;;;5101790;28;19985;-65
2022/06/09 13:02:43;;;;;;;;;;;22.20;51.50;;;;;;5091300;28;19950;-63
2022/06/09 13:05:18;;;;;;;;;;;22.30;51.60;;;;;;5092881;28;19925;-65
2022/06/09 13:07:48;;;;;;;;;;;22.30;51.60;;;;;;5086555;28;20004;-64
2022/06/09 13:10:18;;;;;;;;;;;22.30;51.60;;;;;;5089761;28;20369;-64
2022/06/09 13:13:02;;;;;;;;;;;22.30;51.60;;;;;;5089533;28;19963;-63
2022/06/09 13:15:33;;;;;;;;;;;22.20;51.50;;;;;;5077918;28;19931;-65
2022/06/09 13:18:02;;;;;;;;;;;22.30;51.60;;;;;;5083168;28;20262;-64
2022/06/09 13:20:29;;;;;;;;;;;22.30;51.60;;;;;;5086813;28;19931;-64
2022/06/09 13:22:56;;;;;;;;;;;22.30;51.60;;;;;;5086586;28;19974;-64
2022/06/09 13:25:24;;;;;;;;;;;22.30;51.60;;;;;;5086606;28;19932;-64
2022/06/09 13:27:51;;;;;;;;;;;22.30;51.60;;;;;;5084748;28;19935;-64
2022/06/09 13:30:30;;;;;;;;;;;22.30;51.60;;;;;;5082230;28;20251;-64
2022/06/09 13:32:57;;;;;;;;;;;22.30;51.60;;;;;;5083106;28;19928;-64
2022/06/09 13:35:39;;;;;;;;;;;22.30;51.50;;;;;;5090523;28;19924;-63
2022/06/09 13:38:17;;;;;;;;;;;22.30;51.50;;;;;;5086597;28;19959;-65
2022/06/09 13:40:45;;;;;;;;;;;22.30;51.50;;;;;;5087304;28;19931;-64
2022/06/09 13:43:16;;;;;;;;;;;22.30;51.50;;;;;;5086373;28;20301;-63
2022/06/09 13:45:48;;;;;;;;;;;22.30;51.50;;;;;;5096112;28;19924;-63
2022/06/09 13:48:17;;;;;;;;;;;22.30;51.50;;;;;;5084575;28;20037;-64
2022/06/09 13:50:45;;;;;;;;;;;22.30;51.50;;;;;;5083729;28;19924;-64
2022/06/09 13:53:21;;;;;;;;;;;22.30;51.50;;;;;;5089546;28;19924;-65
2022/06/09 13:55:48;;;;;;;;;;;22.30;51.40;;;;;;5081285;28;19934;-64
2022/06/09 13:58:15;;;;;;;;;;;22.30;51.40;;;;;;5086597;28;19928;-63
2022/06/09 14:00:42;;;;;;;;;;;22.30;51.30;;;;;;5083595;28;20018;-65
2022/06/09 14:03:13;;;;;;;;;;;22.30;51.30;;;;;;5082808;28;20501;-63
2022/06/09 14:05:40;;;;;;;;;;;22.30;51.30;;;;;;5087303;28;20389;-65
2022/06/09 14:08:07;;;;;;;;;;;22.30;51.20;;;;;;5089064;28;19928;-64
2022/06/09 14:10:36;;;;;;;;;;;22.30;51.20;;;;;;5083516;28;19931;-64
2022/06/09 14:13:04;;;;;;;;;;;22.30;51.20;;;;;;5085630;28;19924;-65
2022/06/09 14:15:30;;;;;;;;;;;22.30;51.20;;;;;;5072586;28;19924;-65
2022/06/09 14:17:57;;;;;;;;;;;22.30;51.20;;;;;;5085580;28;20002;-65
2022/06/09 14:20:25;;;;;;;;;;;22.30;51.20;;;;;;5088692;28;19939;-65
2022/06/09 14:22:52;;;;;;;;;;;22.30;51.10;;;;;;5078697;28;19973;-64
2022/06/09 14:25:19;;;;;;;;;;;22.30;51.10;;;;;;5085087;28;19924;-64
2022/06/09 14:27:47;;;;;;;;;;;22.30;51.00;;;;;;5089850;28;20199;-64
2022/06/09 14:30:16;;;;;;;;;;;22.30;51.00;;;;;;5085418;28;20226;-66
2022/06/09 14:32:43;;;;;;;;;;;22.30;51.00;;;;;;5086914;28;19954;-66
2022/06/09 14:35:13;;;;;;;;;;;22.30;51.00;;;;;;5086663;28;19935;-68
2022/06/09 14:37:40;;;;;;;;;;;22.30;50.90;;;;;;5084991;28;20484;-65
2022/06/09 14:40:07;;;;;;;;;;;22.30;50.90;;;;;;5083262;28;19935;-65
2022/06/09 14:42:34;;;;;;;;;;;22.30;50.90;;;;;;5080447;28;19935;-65
2022/06/09 14:45:03;;;;;;;;;;;22.30;50.90;;;;;;5080668;28;20334;-65